sensor_id;sensor_type;location;lat;lon;timestamp;P1;durP1;ratioP1;P2;durP2;ratioP2
11245;SDS011;59870;50.106;8.580;2023-01-15T01:31:17;4.17;;;4.07;;
11245;SDS011;59870;50.106;8.580;2023-01-15T01:37:30;4.27;;;4.17;;
11245;SDS011;59870;50.106;8.580;2023-01-15T01:40:05;4.43;;;4.23;;
11245;SDS011;59870;50.106;8.580;2023-01-15T03:30:34;3.37;;;3.27;;
11245;SDS011;59870;50.106;8.580;2023-01-15T03:33:10;2.93;;;2.83;;
11245;SDS011;59870;50.106;8.580;2023-01-15T03:35:43;3.20;;;3.10;;
11245;SDS011;59870;50.106;8.580;2023-01-15T03:38:33;3.40;;;3.30;;
11245;SDS011;59870;50.106;8.580;2023-01-15T03:45:39;3.30;;;3.20;;
11245;SDS011;59870;50.106;8.580;2023-01-15T03:49:04;3.30;;;3.20;;
11245;SDS011;59870;50.106;8.580;2023-01-15T04:03:50;3.60;;;3.50;;
11245;SDS011;59870;50.106;8.580;2023-01-15T04:06:54;3.60;;;3.50;;
11245;SDS011;59870;50.106;8.580;2023-01-15T04:18:52;3.20;;;3.10;;
11245;SDS011;59870;50.106;8.580;2023-01-15T04:21:22;3.33;;;3.23;;
11245;SDS011;59870;50.106;8.580;2023-01-15T04:23:50;3.30;;;3.20;;
11245;SDS011;59870;50.106;8.580;2023-01-15T04:26:18;3.30;;;3.20;;
11245;SDS011;59870;50.106;8.580;2023-01-15T04:28:46;3.47;;;3.37;;
11245;SDS011;59870;50.106;8.580;2023-01-15T04:31:29;3.47;;;3.30;;
11245;SDS011;59870;50.106;8.580;2023-01-15T04:34:19;3.50;;;3.20;;
11245;SDS011;59870;50.106;8.580;2023-01-15T04:36:47;3.20;;;3.10;;
11245;SDS011;59870;50.106;8.580;2023-01-15T04:39:15;3.00;;;2.90;;
11245;SDS011;59870;50.106;8.580;2023-01-15T04:41:45;3.80;;;3.70;;
11245;SDS011;59870;50.106;8.580;2023-01-15T04:44:48;3.40;;;3.30;;
11245;SDS011;59870;50.106;8.580;2023-01-15T04:51:09;3.27;;;3.17;;
11245;SDS011;59870;50.106;8.580;2023-01-15T04:53:40;3.53;;;3.33;;
11245;SDS011;59870;50.106;8.580;2023-01-15T04:56:31;3.00;;;2.90;;
11245;SDS011;59870;50.106;8.580;2023-01-15T04:59:10;3.40;;;3.30;;
11245;SDS011;59870;50.106;8.580;2023-01-15T05:01:39;3.10;;;3.00;;
11245;SDS011;59870;50.106;8.580;2023-01-15T05:07:46;3.40;;;3.30;;
11245;SDS011;59870;50.106;8.580;2023-01-15T05:11:07;3.40;;;3.30;;
11245;SDS011;59870;50.106;8.580;2023-01-15T05:13:55;3.20;;;3.10;;
11245;SDS011;59870;50.106;8.580;2023-01-15T05:16:24;2.77;;;2.77;;
11245;SDS011;59870;50.106;8.580;2023-01-15T05:23:54;2.83;;;2.73;;
11245;SDS011;59870;50.106;8.580;2023-01-15T05:26:23;3.13;;;2.90;;
11245;SDS011;59870;50.106;8.580;2023-01-15T05:28:57;3.27;;;3.17;;
11245;SDS011;59870;50.106;8.580;2023-01-15T06:07:22;3.23;;;3.13;;
11245;SDS011;59870;50.106;8.580;2023-01-15T06:09:51;3.50;;;3.23;;
11245;SDS011;59870;50.106;8.580;2023-01-15T06:24:45;3.43;;;3.23;;
11245;SDS011;59870;50.106;8.580;2023-01-15T06:32:00;3.37;;;3.23;;
11245;SDS011;59870;50.106;8.580;2023-01-15T06:38:23;3.63;;;3.53;;
11245;SDS011;59870;50.106;8.580;2023-01-15T06:41:36;3.70;;;3.50;;
11245;SDS011;59870;50.106;8.580;2023-01-15T06:44:27;3.63;;;3.53;;
11245;SDS011;59870;50.106;8.580;2023-01-15T06:47:17;3.33;;;3.23;;
11245;SDS011;59870;50.106;8.580;2023-01-15T07:06:23;3.60;;;3.50;;
11245;SDS011;59870;50.106;8.580;2023-01-15T07:09:18;3.80;;;3.67;;
11245;SDS011;59870;50.106;8.580;2023-01-15T07:12:34;3.53;;;3.43;;
11245;SDS011;59870;50.106;8.580;2023-01-15T07:15:02;4.00;;;3.80;;
11245;SDS011;59870;50.106;8.580;2023-01-15T07:17:30;3.87;;;3.77;;
11245;SDS011;59870;50.106;8.580;2023-01-15T07:20:01;3.90;;;3.70;;
11245;SDS011;59870;50.106;8.580;2023-01-15T07:22:30;4.27;;;4.17;;
11245;SDS011;59870;50.106;8.580;2023-01-15T07:24:58;4.20;;;4.00;;
11245;SDS011;59870;50.106;8.580;2023-01-15T07:27:26;4.07;;;3.97;;
11245;SDS011;59870;50.106;8.580;2023-01-15T07:29:54;3.80;;;3.70;;
11245;SDS011;59870;50.106;8.580;2023-01-15T07:32:22;3.70;;;3.60;;
11245;SDS011;59870;50.106;8.580;2023-01-15T07:34:50;3.80;;;3.70;;
11245;SDS011;59870;50.106;8.580;2023-01-15T07:37:18;4.33;;;4.13;;
11245;SDS011;59870;50.106;8.580;2023-01-15T07:39:46;3.93;;;3.63;;
11245;SDS011;59870;50.106;8.580;2023-01-15T07:42:15;4.13;;;3.93;;
11245;SDS011;59870;50.106;8.580;2023-01-15T07:45:01;4.27;;;4.17;;
11245;SDS011;59870;50.106;8.580;2023-01-15T07:47:52;4.60;;;4.40;;
11245;SDS011;59870;50.106;8.580;2023-01-15T07:50:41;4.60;;;4.30;;
11245;SDS011;59870;50.106;8.580;2023-01-15T07:56:21;4.90;;;4.50;;
11245;SDS011;59870;50.106;8.580;2023-01-15T07:58:49;4.83;;;4.53;;
11245;SDS011;59870;50.106;8.580;2023-01-15T08:01:17;4.33;;;4.13;;
11245;SDS011;59870;50.106;8.580;2023-01-15T08:06:38;5.07;;;4.77;;
11245;SDS011;59870;50.106;8.580;2023-01-15T08:13:23;4.43;;;4.33;;
11245;SDS011;59870;50.106;8.580;2023-01-15T08:16:16;4.67;;;4.50;;
11245;SDS011;59870;50.106;8.580;2023-01-15T08:19:46;4.60;;;4.47;;
11245;SDS011;59870;50.106;8.580;2023-01-15T08:22:14;4.77;;;4.67;;
11245;SDS011;59870;50.106;8.580;2023-01-15T08:24:46;4.43;;;4.33;;
11245;SDS011;59870;50.106;8.580;2023-01-15T08:31:50;4.67;;;4.47;;
11245;SDS011;59870;50.106;8.580;2023-01-15T08:34:18;4.63;;;4.43;;
11245;SDS011;59870;50.106;8.580;2023-01-15T08:36:46;4.17;;;4.07;;
11245;SDS011;59870;50.106;8.580;2023-01-15T08:39:16;4.60;;;4.40;;
11245;SDS011;59870;50.106;8.580;2023-01-15T08:41:44;3.70;;;3.60;;
11245;SDS011;59870;50.106;8.580;2023-01-15T08:44:14;4.33;;;4.23;;
11245;SDS011;59870;50.106;8.580;2023-01-15T08:46:43;4.30;;;4.20;;
11245;SDS011;59870;50.106;8.580;2023-01-15T08:49:11;4.53;;;4.33;;
11245;SDS011;59870;50.106;8.580;2023-01-15T08:51:38;4.20;;;4.10;;
11245;SDS011;59870;50.106;8.580;2023-01-15T08:54:06;4.70;;;4.60;;
11245;SDS011;59870;50.106;8.580;2023-01-15T08:56:36;4.30;;;4.10;;
11245;SDS011;59870;50.106;8.580;2023-01-15T08:59:38;4.27;;;4.17;;
11245;SDS011;59870;50.106;8.580;2023-01-15T09:02:06;4.00;;;3.90;;
11245;SDS011;59870;50.106;8.580;2023-01-15T09:07:37;3.97;;;3.87;;
11245;SDS011;59870;50.106;8.580;2023-01-15T09:10:06;3.60;;;3.50;;
11245;SDS011;59870;50.106;8.580;2023-01-15T09:12:43;3.87;;;3.77;;
11245;SDS011;59870;50.106;8.580;2023-01-15T09:15:11;3.70;;;3.60;;
11245;SDS011;59870;50.106;8.580;2023-01-15T09:17:39;3.77;;;3.67;;
11245;SDS011;59870;50.106;8.580;2023-01-15T09:20:12;3.53;;;3.43;;
11245;SDS011;59870;50.106;8.580;2023-01-15T09:22:48;4.30;;;3.90;;
11245;SDS011;59870;50.106;8.580;2023-01-15T09:25:18;3.70;;;3.60;;
11245;SDS011;59870;50.106;8.580;2023-01-15T09:27:46;4.03;;;3.83;;
11245;SDS011;59870;50.106;8.580;2023-01-15T09:30:19;4.73;;;4.43;;
11245;SDS011;59870;50.106;8.580;2023-01-15T09:32:48;3.80;;;3.70;;
11245;SDS011;59870;50.106;8.580;2023-01-15T09:35:16;4.20;;;3.90;;
11245;SDS011;59870;50.106;8.580;2023-01-15T09:37:49;4.17;;;3.90;;
11245;SDS011;59870;50.106;8.580;2023-01-15T09:45:54;3.40;;;3.30;;
11245;SDS011;59870;50.106;8.580;2023-01-15T09:57:19;3.50;;;3.40;;
11245;SDS011;59870;50.106;8.580;2023-01-15T09:59:48;3.50;;;3.40;;
11245;SDS011;59870;50.106;8.580;2023-01-15T10:02:24;3.53;;;3.43;;
11245;SDS011;59870;50.106;8.580;2023-01-15T10:05:22;3.73;;;3.43;;
11245;SDS011;59870;50.106;8.580;2023-01-15T10:14:57;3.80;;;3.70;;
11245;SDS011;59870;50.106;8.580;2023-01-15T10:17:55;3.63;;;3.53;;
11245;SDS011;59870;50.106;8.580;2023-01-15T10:23:34;3.50;;;3.40;;
11245;SDS011;59870;50.106;8.580;2023-01-15T10:26:17;3.50;;;3.40;;
11245;SDS011;59870;50.106;8.580;2023-01-15T10:33:24;3.53;;;3.43;;
11245;SDS011;59870;50.106;8.580;2023-01-15T10:36:08;3.67;;;3.57;;
11245;SDS011;59870;50.106;8.580;2023-01-15T10:38:51;3.73;;;3.53;;
11245;SDS011;59870;50.106;8.580;2023-01-15T10:48:52;3.90;;;3.70;;
11245;SDS011;59870;50.106;8.580;2023-01-15T10:51:26;4.40;;;4.10;;
11245;SDS011;59870;50.106;8.580;2023-01-15T10:54:06;3.40;;;3.30;;
11245;SDS011;59870;50.106;8.580;2023-01-15T10:56:46;3.40;;;3.30;;
11245;SDS011;59870;50.106;8.580;2023-01-15T10:59:43;3.40;;;3.30;;
11245;SDS011;59870;50.106;8.580;2023-01-15T11:02:28;3.93;;;3.73;;
11245;SDS011;59870;50.106;8.580;2023-01-15T11:05:10;3.90;;;3.70;;
11245;SDS011;59870;50.106;8.580;2023-01-15T11:07:42;4.00;;;3.87;;
11245;SDS011;59870;50.106;8.580;2023-01-15T11:10:42;3.83;;;3.70;;
11245;SDS011;59870;50.106;8.580;2023-01-15T11:13:22;4.20;;;4.00;;
11245;SDS011;59870;50.106;8.580;2023-01-15T11:16:19;4.20;;;3.93;;
11245;SDS011;59870;50.106;8.580;2023-01-15T11:19:29;4.03;;;3.83;;
11245;SDS011;59870;50.106;8.580;2023-01-15T11:24:37;4.27;;;4.07;;
11245;SDS011;59870;50.106;8.580;2023-01-15T11:27:14;3.47;;;3.30;;
11245;SDS011;59870;50.106;8.580;2023-01-15T11:29:50;4.00;;;3.80;;
11245;SDS011;59870;50.106;8.580;2023-01-15T11:32:36;4.00;;;3.87;;
11245;SDS011;59870;50.106;8.580;2023-01-15T11:38:46;6.03;;;4.40;;
11245;SDS011;59870;50.106;8.580;2023-01-15T11:41:21;4.47;;;4.10;;
11245;SDS011;59870;50.106;8.580;2023-01-15T11:44:18;4.20;;;4.00;;
11245;SDS011;59870;50.106;8.580;2023-01-15T11:47:13;4.53;;;4.20;;
11245;SDS011;59870;50.106;8.580;2023-01-15T11:50:17;4.73;;;4.53;;
11245;SDS011;59870;50.106;8.580;2023-01-15T11:53:06;4.37;;;4.17;;
11245;SDS011;59870;50.106;8.580;2023-01-15T11:55:43;4.60;;;4.40;;
11245;SDS011;59870;50.106;8.580;2023-01-15T11:58:27;4.47;;;4.10;;
11245;SDS011;59870;50.106;8.580;2023-01-15T12:01:03;4.60;;;4.30;;
11245;SDS011;59870;50.106;8.580;2023-01-15T12:03:35;4.20;;;4.00;;
11245;SDS011;59870;50.106;8.580;2023-01-15T12:09:31;4.87;;;4.43;;
11245;SDS011;59870;50.106;8.580;2023-01-15T12:18:57;5.23;;;4.90;;
11245;SDS011;59870;50.106;8.580;2023-01-15T12:34:07;4.67;;;4.47;;
11245;SDS011;59870;50.106;8.580;2023-01-15T12:41:34;5.23;;;4.83;;
11245;SDS011;59870;50.106;8.580;2023-01-15T12:44:37;5.00;;;4.77;;
11245;SDS011;59870;50.106;8.580;2023-01-15T12:53:51;4.83;;;4.60;;
11245;SDS011;59870;50.106;8.580;2023-01-15T12:56:54;4.80;;;4.60;;
11245;SDS011;59870;50.106;8.580;2023-01-15T12:59:49;5.13;;;4.67;;
11245;SDS011;59870;50.106;8.580;2023-01-15T13:06:00;4.93;;;4.53;;
11245;SDS011;59870;50.106;8.580;2023-01-15T13:12:02;5.30;;;4.80;;
11245;SDS011;59870;50.106;8.580;2023-01-15T13:35:27;5.50;;;5.10;;
11245;SDS011;59870;50.106;8.580;2023-01-15T13:38:23;6.10;;;5.60;;
11245;SDS011;59870;50.106;8.580;2023-01-15T13:40:57;5.43;;;5.10;;
11245;SDS011;59870;50.106;8.580;2023-01-15T13:43:34;5.33;;;5.03;;
11245;SDS011;59870;50.106;8.580;2023-01-15T13:46:18;5.83;;;5.43;;
11245;SDS011;59870;50.106;8.580;2023-01-15T13:48:49;6.30;;;6.00;;
11245;SDS011;59870;50.106;8.580;2023-01-15T13:51:23;5.67;;;5.37;;
11245;SDS011;59870;50.106;8.580;2023-01-15T13:53:56;6.03;;;5.53;;
11245;SDS011;59870;50.106;8.580;2023-01-15T13:56:40;5.67;;;5.37;;
11245;SDS011;59870;50.106;8.580;2023-01-15T13:59:27;6.40;;;5.90;;
11245;SDS011;59870;50.106;8.580;2023-01-15T14:24:07;5.23;;;5.00;;
11245;SDS011;59870;50.106;8.580;2023-01-15T14:27:08;5.73;;;5.43;;
11245;SDS011;59870;50.106;8.580;2023-01-15T14:30:12;5.20;;;4.80;;
11245;SDS011;59870;50.106;8.580;2023-01-15T14:36:19;5.30;;;4.90;;
11245;SDS011;59870;50.106;8.580;2023-01-15T14:38:58;5.47;;;4.70;;
11245;SDS011;59870;50.106;8.580;2023-01-15T14:44:01;6.33;;;5.73;;
11245;SDS011;59870;50.106;8.580;2023-01-15T14:46:30;6.27;;;4.77;;
11245;SDS011;59870;50.106;8.580;2023-01-15T14:49:42;6.03;;;5.43;;
11245;SDS011;59870;50.106;8.580;2023-01-15T14:52:21;5.13;;;4.83;;
11245;SDS011;59870;50.106;8.580;2023-01-15T14:54:51;5.13;;;4.73;;
11245;SDS011;59870;50.106;8.580;2023-01-15T14:57:30;5.23;;;4.63;;
11245;SDS011;59870;50.106;8.580;2023-01-15T15:03:53;6.87;;;4.37;;
11245;SDS011;59870;50.106;8.580;2023-01-15T15:06:35;4.73;;;4.23;;
11245;SDS011;59870;50.106;8.580;2023-01-15T15:15:40;6.30;;;5.23;;
11245;SDS011;59870;50.106;8.580;2023-01-15T15:18:51;5.00;;;4.60;;
11245;SDS011;59870;50.106;8.580;2023-01-15T15:21:26;5.90;;;5.40;;
11245;SDS011;59870;50.106;8.580;2023-01-15T15:26:55;5.53;;;5.13;;
11245;SDS011;59870;50.106;8.580;2023-01-15T15:29:22;4.70;;;4.33;;
11245;SDS011;59870;50.106;8.580;2023-01-15T15:31:55;5.20;;;4.87;;
11245;SDS011;59870;50.106;8.580;2023-01-15T15:34:29;5.60;;;5.23;;
11245;SDS011;59870;50.106;8.580;2023-01-15T15:37:01;5.63;;;5.10;;
11245;SDS011;59870;50.106;8.580;2023-01-15T15:45:24;4.63;;;4.30;;
11245;SDS011;59870;50.106;8.580;2023-01-15T15:48:17;4.83;;;4.43;;
11245;SDS011;59870;50.106;8.580;2023-01-15T15:54:13;5.57;;;5.20;;
11245;SDS011;59870;50.106;8.580;2023-01-15T15:57:13;5.47;;;4.93;;
11245;SDS011;59870;50.106;8.580;2023-01-15T16:02:50;5.33;;;5.03;;
11245;SDS011;59870;50.106;8.580;2023-01-15T16:07:49;5.00;;;4.70;;
11245;SDS011;59870;50.106;8.580;2023-01-15T16:10:25;5.40;;;4.90;;
11245;SDS011;59870;50.106;8.580;2023-01-15T16:13:03;4.57;;;4.27;;
11245;SDS011;59870;50.106;8.580;2023-01-15T16:15:38;5.10;;;4.70;;
11245;SDS011;59870;50.106;8.580;2023-01-15T16:18:27;4.90;;;4.53;;
11245;SDS011;59870;50.106;8.580;2023-01-15T16:21:18;5.00;;;4.60;;
11245;SDS011;59870;50.106;8.580;2023-01-15T16:23:56;5.10;;;4.70;;
11245;SDS011;59870;50.106;8.580;2023-01-15T16:26:48;4.93;;;4.53;;
11245;SDS011;59870;50.106;8.580;2023-01-15T16:29:28;4.60;;;4.30;;
11245;SDS011;59870;50.106;8.580;2023-01-15T16:32:08;4.47;;;4.17;;
11245;SDS011;59870;50.106;8.580;2023-01-15T16:43:15;5.83;;;5.40;;
11245;SDS011;59870;50.106;8.580;2023-01-15T17:25:26;4.27;;;3.90;;
11245;SDS011;59870;50.106;8.580;2023-01-15T17:29:27;4.07;;;3.87;;
11245;SDS011;59870;50.106;8.580;2023-01-15T17:37:34;3.80;;;3.60;;
11245;SDS011;59870;50.106;8.580;2023-01-15T17:47:34;3.53;;;3.33;;
11245;SDS011;59870;50.106;8.580;2023-01-15T18:09:37;4.13;;;3.90;;
11245;SDS011;59870;50.106;8.580;2023-01-15T18:20:58;5.87;;;4.13;;
11245;SDS011;59870;50.106;8.580;2023-01-15T18:23:28;4.07;;;3.87;;
11245;SDS011;59870;50.106;8.580;2023-01-15T18:26:02;3.67;;;3.47;;
11245;SDS011;59870;50.106;8.580;2023-01-15T18:28:36;4.47;;;4.13;;
11245;SDS011;59870;50.106;8.580;2023-01-15T18:31:12;4.50;;;4.20;;
11245;SDS011;59870;50.106;8.580;2023-01-15T18:33:48;4.67;;;4.37;;
11245;SDS011;59870;50.106;8.580;2023-01-15T18:36:17;7.53;;;4.50;;
11245;SDS011;59870;50.106;8.580;2023-01-15T18:38:45;5.40;;;4.77;;
11245;SDS011;59870;50.106;8.580;2023-01-15T18:49:53;5.27;;;4.87;;
11245;SDS011;59870;50.106;8.580;2023-01-15T18:53:24;5.17;;;4.50;;
11245;SDS011;59870;50.106;8.580;2023-01-15T19:08:03;4.00;;;3.70;;
11245;SDS011;59870;50.106;8.580;2023-01-15T19:10:31;5.80;;;4.87;;
11245;SDS011;59870;50.106;8.580;2023-01-15T19:12:59;5.93;;;5.43;;
11245;SDS011;59870;50.106;8.580;2023-01-15T19:15:28;5.63;;;5.13;;
11245;SDS011;59870;50.106;8.580;2023-01-15T19:25:13;5.40;;;4.90;;
11245;SDS011;59870;50.106;8.580;2023-01-15T19:28:59;7.37;;;4.90;;
11245;SDS011;59870;50.106;8.580;2023-01-15T19:39:11;5.53;;;5.23;;
11245;SDS011;59870;50.106;8.580;2023-01-15T19:48:07;8.70;;;5.07;;
11245;SDS011;59870;50.106;8.580;2023-01-15T19:50:57;5.43;;;5.10;;
11245;SDS011;59870;50.106;8.580;2023-01-15T19:53:24;5.50;;;5.10;;
11245;SDS011;59870;50.106;8.580;2023-01-15T19:55:52;6.47;;;5.53;;
11245;SDS011;59870;50.106;8.580;2023-01-15T19:58:19;6.03;;;4.87;;
11245;SDS011;59870;50.106;8.580;2023-01-15T20:00:47;4.97;;;4.67;;
11245;SDS011;59870;50.106;8.580;2023-01-15T20:03:15;5.50;;;5.10;;
11245;SDS011;59870;50.106;8.580;2023-01-15T20:05:43;8.13;;;4.97;;
11245;SDS011;59870;50.106;8.580;2023-01-15T20:08:11;5.17;;;4.87;;
11245;SDS011;59870;50.106;8.580;2023-01-15T20:10:41;6.77;;;5.20;;
11245;SDS011;59870;50.106;8.580;2023-01-15T20:21:40;5.47;;;4.97;;
11245;SDS011;59870;50.106;8.580;2023-01-15T20:24:07;5.87;;;5.37;;
11245;SDS011;59870;50.106;8.580;2023-01-15T20:26:34;5.20;;;4.80;;
11245;SDS011;59870;50.106;8.580;2023-01-15T20:29:02;5.73;;;5.20;;
11245;SDS011;59870;50.106;8.580;2023-01-15T20:31:29;6.17;;;5.20;;
11245;SDS011;59870;50.106;8.580;2023-01-15T20:33:57;5.07;;;4.83;;
11245;SDS011;59870;50.106;8.580;2023-01-15T20:36:27;6.50;;;5.87;;
11245;SDS011;59870;50.106;8.580;2023-01-15T20:38:59;5.33;;;4.83;;
11245;SDS011;59870;50.106;8.580;2023-01-15T20:41:27;7.40;;;5.77;;
11245;SDS011;59870;50.106;8.580;2023-01-15T20:44:13;7.23;;;6.10;;
11245;SDS011;59870;50.106;8.580;2023-01-15T20:50:30;6.10;;;5.23;;
11245;SDS011;59870;50.106;8.580;2023-01-15T20:53:46;8.83;;;5.57;;
11245;SDS011;59870;50.106;8.580;2023-01-15T21:01:15;6.23;;;4.90;;
11245;SDS011;59870;50.106;8.580;2023-01-15T21:05:16;5.60;;;5.10;;
11245;SDS011;59870;50.106;8.580;2023-01-15T21:08:35;7.27;;;5.50;;
11245;SDS011;59870;50.106;8.580;2023-01-15T21:21:34;6.70;;;6.03;;
11245;SDS011;59870;50.106;8.580;2023-01-15T21:28:04;6.53;;;6.03;;
11245;SDS011;59870;50.106;8.580;2023-01-15T21:30:31;7.20;;;5.50;;
11245;SDS011;59870;50.106;8.580;2023-01-15T21:32:59;6.40;;;5.67;;
11245;SDS011;59870;50.106;8.580;2023-01-15T21:35:27;9.40;;;6.03;;
11245;SDS011;59870;50.106;8.580;2023-01-15T21:45:03;6.87;;;6.37;;
11245;SDS011;59870;50.106;8.580;2023-01-15T21:57:27;7.53;;;4.87;;
11245;SDS011;59870;50.106;8.580;2023-01-15T21:59:55;4.90;;;4.50;;
11245;SDS011;59870;50.106;8.580;2023-01-15T22:02:23;5.30;;;4.73;;
11245;SDS011;59870;50.106;8.580;2023-01-15T22:08:54;7.00;;;4.73;;
11245;SDS011;59870;50.106;8.580;2023-01-15T22:11:22;5.10;;;4.70;;
11245;SDS011;59870;50.106;8.580;2023-01-15T22:13:50;5.37;;;4.37;;
11245;SDS011;59870;50.106;8.580;2023-01-15T22:30:57;4.77;;;4.37;;
11245;SDS011;59870;50.106;8.580;2023-01-15T22:33:25;5.00;;;4.50;;
11245;SDS011;59870;50.106;8.580;2023-01-15T22:35:56;5.27;;;4.83;;
11245;SDS011;59870;50.106;8.580;2023-01-15T22:38:25;6.30;;;4.87;;
11245;SDS011;59870;50.106;8.580;2023-01-15T22:40:52;5.70;;;5.30;;
11245;SDS011;59870;50.106;8.580;2023-01-15T22:46:39;5.77;;;5.13;;
11245;SDS011;59870;50.106;8.580;2023-01-15T22:49:06;8.23;;;4.60;;
11245;SDS011;59870;50.106;8.580;2023-01-15T23:01:22;4.80;;;4.07;;
11245;SDS011;59870;50.106;8.580;2023-01-15T23:03:50;4.57;;;4.17;;
11245;SDS011;59870;50.106;8.580;2023-01-15T23:06:17;6.03;;;4.03;;
11245;SDS011;59870;50.106;8.580;2023-01-15T23:08:45;5.40;;;3.80;;
11245;SDS011;59870;50.106;8.580;2023-01-15T23:11:14;4.63;;;4.17;;
11245;SDS011;59870;50.106;8.580;2023-01-15T23:13:42;4.50;;;4.17;;
11245;SDS011;59870;50.106;8.580;2023-01-15T23:16:09;6.03;;;4.03;;
11245;SDS011;59870;50.106;8.580;2023-01-15T23:18:37;10.43;;;4.23;;
11245;SDS011;59870;50.106;8.580;2023-01-15T23:21:12;4.07;;;3.87;;
11245;SDS011;59870;50.106;8.580;2023-01-15T23:23:42;3.90;;;3.60;;
11245;SDS011;59870;50.106;8.580;2023-01-15T23:26:11;4.30;;;3.90;;
11245;SDS011;59870;50.106;8.580;2023-01-15T23:28:41;4.23;;;3.40;;
11245;SDS011;59870;50.106;8.580;2023-01-15T23:31:09;3.70;;;3.50;;
11245;SDS011;59870;50.106;8.580;2023-01-15T23:33:37;5.30;;;3.30;;
11245;SDS011;59870;50.106;8.580;2023-01-15T23:37:58;3.60;;;3.40;;
11245;SDS011;59870;50.106;8.580;2023-01-15T23:40:25;3.27;;;3.07;;
11245;SDS011;59870;50.106;8.580;2023-01-15T23:42:52;3.93;;;3.67;;
11245;SDS011;59870;50.106;8.580;2023-01-15T23:45:38;3.80;;;3.47;;
11245;SDS011;59870;50.106;8.580;2023-01-15T23:48:25;4.80;;;4.50;;
11245;SDS011;59870;50.106;8.580;2023-01-15T23:50:52;3.53;;;3.23;;
